sensor_id;sensor_type;location;lat;lon;timestamp;P1;durP1;ratioP1;P2;durP2;ratioP2
78995;SDS011;68401;47.192;-1.552;2023-04-09T00:00:33;6.40;;;4.65;;
78995;SDS011;68401;47.192;-1.552;2023-04-09T00:02:59;5.57;;;4.32;;
78995;SDS011;68401;47.192;-1.552;2023-04-09T00:05:24;10.27;;;5.60;;
78995;SDS011;68401;47.192;-1.552;2023-04-09T00:07:50;5.90;;;4.72;;
78995;SDS011;68401;47.192;-1.552;2023-04-09T00:10:15;6.75;;;5.10;;
78995;SDS011;68401;47.192;-1.552;2023-04-09T00:12:41;7.25;;;5.90;;
78995;SDS011;68401;47.192;-1.552;2023-04-09T00:15:06;5.90;;;4.63;;
78995;SDS011;68401;47.192;-1.552;2023-04-09T00:17:32;5.80;;;4.30;;
78995;SDS011;68401;47.192;-1.552;2023-04-09T00:19:58;6.30;;;4.70;;
78995;SDS011;68401;47.192;-1.552;2023-04-09T00:22:24;5.97;;;4.75;;
78995;SDS011;68401;47.192;-1.552;2023-04-09T00:24:49;6.63;;;4.65;;
78995;SDS011;68401;47.192;-1.552;2023-04-09T00:27:15;8.82;;;4.85;;
78995;SDS011;68401;47.192;-1.552;2023-04-09T00:29:40;7.13;;;5.07;;
78995;SDS011;68401;47.192;-1.552;2023-04-09T00:32:06;6.32;;;4.28;;
78995;SDS011;68401;47.192;-1.552;2023-04-09T00:34:31;7.28;;;4.80;;
78995;SDS011;68401;47.192;-1.552;2023-04-09T00:36:57;6.18;;;4.47;;
78995;SDS011;68401;47.192;-1.552;2023-04-09T00:39:22;6.03;;;4.68;;
78995;SDS011;68401;47.192;-1.552;2023-04-09T00:41:48;7.57;;;4.75;;
78995;SDS011;68401;47.192;-1.552;2023-04-09T00:44:13;6.25;;;4.45;;
78995;SDS011;68401;47.192;-1.552;2023-04-09T00:46:38;6.93;;;4.65;;
78995;SDS011;68401;47.192;-1.552;2023-04-09T00:49:04;6.35;;;4.85;;
78995;SDS011;68401;47.192;-1.552;2023-04-09T00:51:30;7.65;;;4.22;;
78995;SDS011;68401;47.192;-1.552;2023-04-09T00:53:57;6.60;;;5.03;;
78995;SDS011;68401;47.192;-1.552;2023-04-09T00:56:22;8.85;;;4.93;;
78995;SDS011;68401;47.192;-1.552;2023-04-09T00:58:48;5.82;;;3.85;;
78995;SDS011;68401;47.192;-1.552;2023-04-09T01:01:14;5.60;;;4.05;;
78995;SDS011;68401;47.192;-1.552;2023-04-09T01:03:39;8.40;;;5.00;;
78995;SDS011;68401;47.192;-1.552;2023-04-09T01:06:14;7.10;;;4.50;;
78995;SDS011;68401;47.192;-1.552;2023-04-09T01:11:53;5.20;;;4.57;;
78995;SDS011;68401;47.192;-1.552;2023-04-09T01:14:57;7.50;;;4.88;;
78995;SDS011;68401;47.192;-1.552;2023-04-09T01:17:28;7.65;;;4.47;;
78995;SDS011;68401;47.192;-1.552;2023-04-09T01:20:02;7.22;;;4.65;;
78995;SDS011;68401;47.192;-1.552;2023-04-09T01:30:51;6.80;;;4.95;;
78995;SDS011;68401;47.192;-1.552;2023-04-09T01:33:18;7.43;;;4.97;;
78995;SDS011;68401;47.192;-1.552;2023-04-09T01:35:47;7.32;;;4.88;;
78995;SDS011;68401;47.192;-1.552;2023-04-09T01:38:14;7.50;;;5.00;;
78995;SDS011;68401;47.192;-1.552;2023-04-09T01:40:41;7.88;;;5.18;;
78995;SDS011;68401;47.192;-1.552;2023-04-09T01:43:06;7.45;;;4.88;;
78995;SDS011;68401;47.192;-1.552;2023-04-09T01:45:33;6.82;;;5.28;;
78995;SDS011;68401;47.192;-1.552;2023-04-09T01:47:58;8.80;;;5.10;;
78995;SDS011;68401;47.192;-1.552;2023-04-09T01:50:24;6.78;;;5.07;;
78995;SDS011;68401;47.192;-1.552;2023-04-09T01:52:50;6.72;;;5.13;;
78995;SDS011;68401;47.192;-1.552;2023-04-09T01:55:15;8.02;;;5.07;;
78995;SDS011;68401;47.192;-1.552;2023-04-09T01:57:41;7.03;;;4.45;;
78995;SDS011;68401;47.192;-1.552;2023-04-09T02:00:06;6.65;;;5.05;;
78995;SDS011;68401;47.192;-1.552;2023-04-09T02:02:39;5.63;;;4.78;;
78995;SDS011;68401;47.192;-1.552;2023-04-09T02:05:10;7.53;;;5.18;;
78995;SDS011;68401;47.192;-1.552;2023-04-09T02:07:46;7.60;;;4.53;;
78995;SDS011;68401;47.192;-1.552;2023-04-09T02:10:12;6.85;;;4.45;;
78995;SDS011;68401;47.192;-1.552;2023-04-09T02:12:39;5.57;;;4.03;;
78995;SDS011;68401;47.192;-1.552;2023-04-09T02:15:07;8.05;;;5.22;;
78995;SDS011;68401;47.192;-1.552;2023-04-09T02:17:32;8.38;;;5.10;;
78995;SDS011;68401;47.192;-1.552;2023-04-09T02:19:58;7.28;;;4.82;;
78995;SDS011;68401;47.192;-1.552;2023-04-09T02:22:23;7.32;;;5.15;;
78995;SDS011;68401;47.192;-1.552;2023-04-09T02:24:48;8.38;;;5.20;;
78995;SDS011;68401;47.192;-1.552;2023-04-09T02:27:14;7.97;;;5.57;;
78995;SDS011;68401;47.192;-1.552;2023-04-09T02:29:40;8.18;;;5.45;;
78995;SDS011;68401;47.192;-1.552;2023-04-09T02:32:06;7.00;;;4.88;;
78995;SDS011;68401;47.192;-1.552;2023-04-09T02:34:31;7.75;;;5.32;;
78995;SDS011;68401;47.192;-1.552;2023-04-09T02:36:57;9.02;;;5.38;;
78995;SDS011;68401;47.192;-1.552;2023-04-09T02:39:22;6.85;;;5.00;;
78995;SDS011;68401;47.192;-1.552;2023-04-09T02:41:48;7.82;;;5.80;;
78995;SDS011;68401;47.192;-1.552;2023-04-09T02:44:13;7.70;;;5.15;;
78995;SDS011;68401;47.192;-1.552;2023-04-09T02:46:39;7.93;;;4.88;;
78995;SDS011;68401;47.192;-1.552;2023-04-09T02:49:05;7.85;;;5.60;;
78995;SDS011;68401;47.192;-1.552;2023-04-09T02:51:32;6.65;;;5.20;;
78995;SDS011;68401;47.192;-1.552;2023-04-09T02:53:59;6.85;;;4.78;;
78995;SDS011;68401;47.192;-1.552;2023-04-09T02:56:25;5.82;;;4.50;;
78995;SDS011;68401;47.192;-1.552;2023-04-09T02:58:50;7.05;;;4.97;;
78995;SDS011;68401;47.192;-1.552;2023-04-09T03:01:18;8.75;;;5.30;;
78995;SDS011;68401;47.192;-1.552;2023-04-09T03:03:44;7.50;;;5.50;;
78995;SDS011;68401;47.192;-1.552;2023-04-09T03:06:09;6.00;;;4.95;;
78995;SDS011;68401;47.192;-1.552;2023-04-09T03:08:35;6.85;;;5.22;;
78995;SDS011;68401;47.192;-1.552;2023-04-09T03:11:00;6.95;;;5.13;;
78995;SDS011;68401;47.192;-1.552;2023-04-09T03:13:26;8.70;;;6.25;;
78995;SDS011;68401;47.192;-1.552;2023-04-09T03:15:52;6.93;;;4.82;;
78995;SDS011;68401;47.192;-1.552;2023-04-09T03:18:17;7.07;;;5.03;;
78995;SDS011;68401;47.192;-1.552;2023-04-09T03:20:43;8.15;;;5.53;;
78995;SDS011;68401;47.192;-1.552;2023-04-09T03:23:09;7.00;;;4.93;;
78995;SDS011;68401;47.192;-1.552;2023-04-09T03:25:34;6.63;;;4.95;;
78995;SDS011;68401;47.192;-1.552;2023-04-09T03:28:00;6.10;;;4.55;;
78995;SDS011;68401;47.192;-1.552;2023-04-09T03:30:25;7.53;;;5.30;;
78995;SDS011;68401;47.192;-1.552;2023-04-09T03:32:51;6.38;;;4.90;;
78995;SDS011;68401;47.192;-1.552;2023-04-09T03:35:16;7.60;;;4.75;;
78995;SDS011;68401;47.192;-1.552;2023-04-09T03:37:42;7.43;;;4.75;;
78995;SDS011;68401;47.192;-1.552;2023-04-09T03:40:07;8.00;;;5.40;;
78995;SDS011;68401;47.192;-1.552;2023-04-09T03:42:33;7.53;;;5.22;;
78995;SDS011;68401;47.192;-1.552;2023-04-09T03:44:59;7.63;;;5.30;;
78995;SDS011;68401;47.192;-1.552;2023-04-09T03:47:25;8.55;;;5.20;;
78995;SDS011;68401;47.192;-1.552;2023-04-09T03:49:50;7.25;;;5.22;;
78995;SDS011;68401;47.192;-1.552;2023-04-09T03:52:16;7.82;;;5.22;;
78995;SDS011;68401;47.192;-1.552;2023-04-09T03:54:41;8.55;;;5.28;;
78995;SDS011;68401;47.192;-1.552;2023-04-09T03:57:07;8.90;;;5.35;;
78995;SDS011;68401;47.192;-1.552;2023-04-09T03:59:33;7.32;;;5.57;;
78995;SDS011;68401;47.192;-1.552;2023-04-09T04:01:58;8.13;;;5.10;;
78995;SDS011;68401;47.192;-1.552;2023-04-09T04:04:23;8.27;;;4.90;;
78995;SDS011;68401;47.192;-1.552;2023-04-09T04:06:49;8.88;;;5.40;;
78995;SDS011;68401;47.192;-1.552;2023-04-09T04:09:14;8.27;;;5.82;;
78995;SDS011;68401;47.192;-1.552;2023-04-09T04:11:40;7.63;;;5.05;;
78995;SDS011;68401;47.192;-1.552;2023-04-09T04:14:05;8.88;;;5.72;;
78995;SDS011;68401;47.192;-1.552;2023-04-09T04:16:31;7.78;;;5.15;;
78995;SDS011;68401;47.192;-1.552;2023-04-09T04:18:56;6.60;;;4.85;;
78995;SDS011;68401;47.192;-1.552;2023-04-09T04:21:22;10.25;;;5.85;;
78995;SDS011;68401;47.192;-1.552;2023-04-09T04:23:47;8.15;;;5.55;;
78995;SDS011;68401;47.192;-1.552;2023-04-09T04:26:13;7.95;;;6.18;;
78995;SDS011;68401;47.192;-1.552;2023-04-09T04:28:38;5.53;;;4.55;;
78995;SDS011;68401;47.192;-1.552;2023-04-09T04:31:09;6.65;;;5.13;;
78995;SDS011;68401;47.192;-1.552;2023-04-09T04:33:35;7.28;;;5.38;;
78995;SDS011;68401;47.192;-1.552;2023-04-09T04:36:05;7.70;;;6.28;;
78995;SDS011;68401;47.192;-1.552;2023-04-09T04:38:37;9.02;;;5.93;;
78995;SDS011;68401;47.192;-1.552;2023-04-09T04:41:03;6.97;;;5.15;;
78995;SDS011;68401;47.192;-1.552;2023-04-09T04:43:29;9.60;;;5.90;;
78995;SDS011;68401;47.192;-1.552;2023-04-09T04:45:55;8.00;;;5.63;;
78995;SDS011;68401;47.192;-1.552;2023-04-09T04:48:20;7.90;;;5.57;;
78995;SDS011;68401;47.192;-1.552;2023-04-09T04:50:46;8.25;;;5.55;;
78995;SDS011;68401;47.192;-1.552;2023-04-09T04:53:18;7.22;;;5.07;;
78995;SDS011;68401;47.192;-1.552;2023-04-09T04:55:44;7.75;;;5.65;;
78995;SDS011;68401;47.192;-1.552;2023-04-09T04:58:09;9.35;;;6.25;;
78995;SDS011;68401;47.192;-1.552;2023-04-09T05:00:34;8.90;;;5.35;;
78995;SDS011;68401;47.192;-1.552;2023-04-09T05:03:00;8.35;;;6.13;;
78995;SDS011;68401;47.192;-1.552;2023-04-09T05:05:25;12.45;;;6.28;;
78995;SDS011;68401;47.192;-1.552;2023-04-09T05:07:51;8.32;;;5.55;;
78995;SDS011;68401;47.192;-1.552;2023-04-09T05:10:16;8.35;;;5.07;;
78995;SDS011;68401;47.192;-1.552;2023-04-09T05:12:41;8.40;;;5.55;;
78995;SDS011;68401;47.192;-1.552;2023-04-09T05:15:07;7.60;;;5.80;;
78995;SDS011;68401;47.192;-1.552;2023-04-09T05:17:32;8.02;;;5.35;;
78995;SDS011;68401;47.192;-1.552;2023-04-09T05:19:59;14.02;;;8.35;;
78995;SDS011;68401;47.192;-1.552;2023-04-09T05:22:25;11.18;;;8.10;;
78995;SDS011;68401;47.192;-1.552;2023-04-09T05:24:51;10.85;;;6.78;;
78995;SDS011;68401;47.192;-1.552;2023-04-09T05:27:16;11.75;;;7.88;;
78995;SDS011;68401;47.192;-1.552;2023-04-09T05:29:43;13.25;;;10.43;;
78995;SDS011;68401;47.192;-1.552;2023-04-09T05:32:08;16.13;;;10.93;;
78995;SDS011;68401;47.192;-1.552;2023-04-09T05:34:34;23.83;;;14.70;;
78995;SDS011;68401;47.192;-1.552;2023-04-09T05:36:59;19.55;;;13.85;;
78995;SDS011;68401;47.192;-1.552;2023-04-09T05:39:25;16.30;;;11.45;;
78995;SDS011;68401;47.192;-1.552;2023-04-09T05:41:50;9.95;;;7.10;;
78995;SDS011;68401;47.192;-1.552;2023-04-09T05:44:16;11.43;;;7.25;;
78995;SDS011;68401;47.192;-1.552;2023-04-09T05:46:42;12.73;;;7.57;;
78995;SDS011;68401;47.192;-1.552;2023-04-09T05:49:07;17.15;;;9.77;;
78995;SDS011;68401;47.192;-1.552;2023-04-09T05:51:34;14.77;;;8.20;;
78995;SDS011;68401;47.192;-1.552;2023-04-09T05:53:59;9.80;;;6.85;;
78995;SDS011;68401;47.192;-1.552;2023-04-09T05:56:25;10.65;;;6.05;;
78995;SDS011;68401;47.192;-1.552;2023-04-09T05:58:52;9.70;;;6.07;;
78995;SDS011;68401;47.192;-1.552;2023-04-09T06:01:17;8.18;;;6.25;;
78995;SDS011;68401;47.192;-1.552;2023-04-09T06:03:43;8.68;;;5.93;;
78995;SDS011;68401;47.192;-1.552;2023-04-09T06:06:08;7.20;;;5.22;;
78995;SDS011;68401;47.192;-1.552;2023-04-09T06:08:34;9.50;;;5.10;;
78995;SDS011;68401;47.192;-1.552;2023-04-09T06:11:00;6.35;;;5.15;;
78995;SDS011;68401;47.192;-1.552;2023-04-09T06:13:26;7.68;;;5.60;;
78995;SDS011;68401;47.192;-1.552;2023-04-09T06:15:51;8.20;;;5.90;;
78995;SDS011;68401;47.192;-1.552;2023-04-09T06:18:17;8.27;;;5.40;;
78995;SDS011;68401;47.192;-1.552;2023-04-09T06:20:42;6.25;;;4.80;;
78995;SDS011;68401;47.192;-1.552;2023-04-09T06:23:07;8.10;;;5.68;;
78995;SDS011;68401;47.192;-1.552;2023-04-09T06:25:34;8.25;;;6.13;;
78995;SDS011;68401;47.192;-1.552;2023-04-09T06:28:00;9.38;;;5.53;;
78995;SDS011;68401;47.192;-1.552;2023-04-09T06:30:27;7.60;;;5.80;;
78995;SDS011;68401;47.192;-1.552;2023-04-09T06:32:52;8.80;;;5.30;;
78995;SDS011;68401;47.192;-1.552;2023-04-09T06:35:18;8.27;;;6.38;;
78995;SDS011;68401;47.192;-1.552;2023-04-09T06:37:43;8.15;;;5.50;;
78995;SDS011;68401;47.192;-1.552;2023-04-09T06:40:09;9.93;;;5.82;;
78995;SDS011;68401;47.192;-1.552;2023-04-09T06:42:35;7.53;;;5.13;;
78995;SDS011;68401;47.192;-1.552;2023-04-09T06:45:01;7.55;;;5.45;;
78995;SDS011;68401;47.192;-1.552;2023-04-09T06:47:32;8.57;;;5.93;;
78995;SDS011;68401;47.192;-1.552;2023-04-09T06:49:57;9.15;;;5.97;;
78995;SDS011;68401;47.192;-1.552;2023-04-09T06:52:23;8.07;;;6.03;;
78995;SDS011;68401;47.192;-1.552;2023-04-09T06:54:49;8.10;;;6.05;;
78995;SDS011;68401;47.192;-1.552;2023-04-09T06:57:15;8.70;;;6.25;;
78995;SDS011;68401;47.192;-1.552;2023-04-09T06:59:41;7.80;;;5.13;;
78995;SDS011;68401;47.192;-1.552;2023-04-09T07:02:06;7.40;;;5.75;;
78995;SDS011;68401;47.192;-1.552;2023-04-09T07:04:32;8.68;;;6.30;;
78995;SDS011;68401;47.192;-1.552;2023-04-09T07:06:57;7.93;;;5.18;;
78995;SDS011;68401;47.192;-1.552;2023-04-09T07:09:24;8.13;;;5.53;;
78995;SDS011;68401;47.192;-1.552;2023-04-09T07:11:49;8.00;;;5.85;;
78995;SDS011;68401;47.192;-1.552;2023-04-09T07:14:14;8.57;;;5.10;;
78995;SDS011;68401;47.192;-1.552;2023-04-09T07:16:40;8.45;;;6.40;;
78995;SDS011;68401;47.192;-1.552;2023-04-09T07:19:05;8.35;;;5.93;;
78995;SDS011;68401;47.192;-1.552;2023-04-09T07:21:31;8.68;;;6.07;;
78995;SDS011;68401;47.192;-1.552;2023-04-09T07:23:57;9.02;;;5.75;;
78995;SDS011;68401;47.192;-1.552;2023-04-09T07:26:22;10.50;;;6.75;;
78995;SDS011;68401;47.192;-1.552;2023-04-09T07:28:48;8.23;;;5.95;;
78995;SDS011;68401;47.192;-1.552;2023-04-09T07:31:13;6.68;;;4.95;;
78995;SDS011;68401;47.192;-1.552;2023-04-09T07:33:39;6.88;;;5.93;;
78995;SDS011;68401;47.192;-1.552;2023-04-09T07:36:04;6.22;;;5.47;;
78995;SDS011;68401;47.192;-1.552;2023-04-09T07:38:30;8.80;;;5.38;;
78995;SDS011;68401;47.192;-1.552;2023-04-09T07:40:56;6.63;;;5.15;;
78995;SDS011;68401;47.192;-1.552;2023-04-09T07:43:22;7.38;;;5.72;;
78995;SDS011;68401;47.192;-1.552;2023-04-09T07:45:48;7.05;;;4.97;;
78995;SDS011;68401;47.192;-1.552;2023-04-09T07:48:15;6.50;;;4.90;;
78995;SDS011;68401;47.192;-1.552;2023-04-09T07:50:41;5.63;;;5.00;;
78995;SDS011;68401;47.192;-1.552;2023-04-09T07:53:06;7.85;;;5.63;;
78995;SDS011;68401;47.192;-1.552;2023-04-09T07:55:32;6.88;;;4.97;;
78995;SDS011;68401;47.192;-1.552;2023-04-09T07:57:57;6.72;;;5.10;;
78995;SDS011;68401;47.192;-1.552;2023-04-09T08:00:23;5.97;;;4.85;;
78995;SDS011;68401;47.192;-1.552;2023-04-09T08:02:49;6.22;;;4.88;;
78995;SDS011;68401;47.192;-1.552;2023-04-09T08:05:14;5.55;;;4.72;;
78995;SDS011;68401;47.192;-1.552;2023-04-09T08:07:40;6.10;;;5.50;;
78995;SDS011;68401;47.192;-1.552;2023-04-09T08:10:06;7.03;;;4.55;;
78995;SDS011;68401;47.192;-1.552;2023-04-09T08:12:31;6.68;;;4.22;;
78995;SDS011;68401;47.192;-1.552;2023-04-09T08:14:57;5.70;;;5.20;;
78995;SDS011;68401;47.192;-1.552;2023-04-09T08:17:22;6.03;;;4.70;;
78995;SDS011;68401;47.192;-1.552;2023-04-09T08:19:48;5.93;;;4.75;;
78995;SDS011;68401;47.192;-1.552;2023-04-09T08:22:14;5.75;;;4.78;;
78995;SDS011;68401;47.192;-1.552;2023-04-09T08:24:41;6.82;;;5.03;;
78995;SDS011;68401;47.192;-1.552;2023-04-09T08:29:33;5.47;;;4.47;;
78995;SDS011;68401;47.192;-1.552;2023-04-09T08:31:58;6.63;;;4.68;;
78995;SDS011;68401;47.192;-1.552;2023-04-09T08:34:24;5.50;;;4.88;;
78995;SDS011;68401;47.192;-1.552;2023-04-09T08:36:49;5.65;;;4.35;;
78995;SDS011;68401;47.192;-1.552;2023-04-09T08:39:15;5.70;;;4.35;;
78995;SDS011;68401;47.192;-1.552;2023-04-09T08:41:45;5.57;;;4.60;;
78995;SDS011;68401;47.192;-1.552;2023-04-09T08:44:12;5.32;;;4.82;;
78995;SDS011;68401;47.192;-1.552;2023-04-09T08:46:37;6.50;;;4.53;;
78995;SDS011;68401;47.192;-1.552;2023-04-09T08:49:03;4.68;;;3.63;;
78995;SDS011;68401;47.192;-1.552;2023-04-09T08:51:28;5.88;;;4.38;;
78995;SDS011;68401;47.192;-1.552;2023-04-09T08:53:56;5.55;;;4.22;;
78995;SDS011;68401;47.192;-1.552;2023-04-09T08:56:23;4.00;;;3.20;;
78995;SDS011;68401;47.192;-1.552;2023-04-09T08:58:49;6.35;;;3.80;;
78995;SDS011;68401;47.192;-1.552;2023-04-09T09:03:54;5.30;;;3.72;;
78995;SDS011;68401;47.192;-1.552;2023-04-09T09:06:29;5.20;;;4.05;;
78995;SDS011;68401;47.192;-1.552;2023-04-09T09:11:28;5.15;;;4.35;;
78995;SDS011;68401;47.192;-1.552;2023-04-09T09:14:04;4.40;;;3.67;;
78995;SDS011;68401;47.192;-1.552;2023-04-09T09:16:34;4.72;;;4.20;;
78995;SDS011;68401;47.192;-1.552;2023-04-09T09:19:03;5.63;;;4.25;;
78995;SDS011;68401;47.192;-1.552;2023-04-09T09:21:29;4.32;;;3.70;;
78995;SDS011;68401;47.192;-1.552;2023-04-09T09:23:55;4.05;;;3.38;;
78995;SDS011;68401;47.192;-1.552;2023-04-09T09:26:28;5.38;;;3.80;;
78995;SDS011;68401;47.192;-1.552;2023-04-09T09:28:55;5.78;;;3.78;;
78995;SDS011;68401;47.192;-1.552;2023-04-09T09:31:24;5.00;;;3.70;;
78995;SDS011;68401;47.192;-1.552;2023-04-09T09:33:50;5.07;;;3.75;;
78995;SDS011;68401;47.192;-1.552;2023-04-09T09:36:29;4.10;;;3.63;;
78995;SDS011;68401;47.192;-1.552;2023-04-09T09:38:58;4.55;;;2.85;;
78995;SDS011;68401;47.192;-1.552;2023-04-09T09:41:27;4.30;;;3.10;;
78995;SDS011;68401;47.192;-1.552;2023-04-09T09:43:53;5.15;;;3.53;;
78995;SDS011;68401;47.192;-1.552;2023-04-09T09:46:19;3.58;;;2.90;;
78995;SDS011;68401;47.192;-1.552;2023-04-09T09:48:45;4.50;;;3.13;;
78995;SDS011;68401;47.192;-1.552;2023-04-09T09:51:11;5.90;;;3.33;;
78995;SDS011;68401;47.192;-1.552;2023-04-09T09:53:38;3.50;;;3.20;;
78995;SDS011;68401;47.192;-1.552;2023-04-09T09:56:05;5.38;;;3.33;;
78995;SDS011;68401;47.192;-1.552;2023-04-09T09:58:46;3.65;;;2.60;;
78995;SDS011;68401;47.192;-1.552;2023-04-09T10:01:16;3.67;;;2.58;;
78995;SDS011;68401;47.192;-1.552;2023-04-09T10:03:43;4.30;;;2.50;;
78995;SDS011;68401;47.192;-1.552;2023-04-09T10:06:10;3.40;;;2.40;;
78995;SDS011;68401;47.192;-1.552;2023-04-09T10:08:36;3.65;;;2.50;;
78995;SDS011;68401;47.192;-1.552;2023-04-09T10:11:02;3.30;;;2.67;;
78995;SDS011;68401;47.192;-1.552;2023-04-09T10:13:34;5.93;;;2.65;;
78995;SDS011;68401;47.192;-1.552;2023-04-09T10:16:02;3.10;;;2.60;;
78995;SDS011;68401;47.192;-1.552;2023-04-09T10:18:28;3.45;;;2.67;;
78995;SDS011;68401;47.192;-1.552;2023-04-09T10:23:26;3.33;;;2.60;;
78995;SDS011;68401;47.192;-1.552;2023-04-09T10:25:57;4.03;;;2.42;;
78995;SDS011;68401;47.192;-1.552;2023-04-09T10:28:22;3.95;;;2.80;;
78995;SDS011;68401;47.192;-1.552;2023-04-09T10:30:48;5.70;;;3.10;;
78995;SDS011;68401;47.192;-1.552;2023-04-09T10:33:15;4.03;;;2.58;;
78995;SDS011;68401;47.192;-1.552;2023-04-09T10:35:41;4.40;;;2.83;;
78995;SDS011;68401;47.192;-1.552;2023-04-09T10:38:12;3.60;;;2.60;;
78995;SDS011;68401;47.192;-1.552;2023-04-09T10:40:47;4.93;;;3.80;;
78995;SDS011;68401;47.192;-1.552;2023-04-09T10:43:17;4.43;;;2.83;;
78995;SDS011;68401;47.192;-1.552;2023-04-09T10:45:47;3.67;;;3.00;;
78995;SDS011;68401;47.192;-1.552;2023-04-09T10:48:18;3.38;;;2.40;;
78995;SDS011;68401;47.192;-1.552;2023-04-09T10:50:44;3.80;;;3.10;;
78995;SDS011;68401;47.192;-1.552;2023-04-09T10:53:25;3.65;;;2.58;;
78995;SDS011;68401;47.192;-1.552;2023-04-09T10:55:52;3.63;;;2.42;;
78995;SDS011;68401;47.192;-1.552;2023-04-09T10:58:18;3.70;;;2.53;;
78995;SDS011;68401;47.192;-1.552;2023-04-09T11:00:44;4.38;;;3.22;;
78995;SDS011;68401;47.192;-1.552;2023-04-09T11:03:19;3.72;;;3.13;;
78995;SDS011;68401;47.192;-1.552;2023-04-09T11:05:50;4.28;;;2.67;;
78995;SDS011;68401;47.192;-1.552;2023-04-09T11:08:34;3.97;;;2.92;;
78995;SDS011;68401;47.192;-1.552;2023-04-09T11:11:00;3.78;;;1.90;;
78995;SDS011;68401;47.192;-1.552;2023-04-09T11:13:26;4.10;;;2.17;;
78995;SDS011;68401;47.192;-1.552;2023-04-09T11:15:53;3.03;;;2.20;;
78995;SDS011;68401;47.192;-1.552;2023-04-09T11:18:23;3.22;;;2.03;;
78995;SDS011;68401;47.192;-1.552;2023-04-09T11:20:54;3.28;;;2.30;;
78995;SDS011;68401;47.192;-1.552;2023-04-09T11:23:20;3.10;;;2.28;;
78995;SDS011;68401;47.192;-1.552;2023-04-09T11:25:49;4.05;;;2.45;;
78995;SDS011;68401;47.192;-1.552;2023-04-09T11:28:15;3.85;;;2.65;;
78995;SDS011;68401;47.192;-1.552;2023-04-09T11:30:41;2.45;;;1.92;;
78995;SDS011;68401;47.192;-1.552;2023-04-09T11:33:08;2.53;;;1.80;;
78995;SDS011;68401;47.192;-1.552;2023-04-09T11:35:34;3.38;;;1.95;;
78995;SDS011;68401;47.192;-1.552;2023-04-09T11:38:09;3.15;;;1.85;;
78995;SDS011;68401;47.192;-1.552;2023-04-09T11:40:35;3.30;;;1.70;;
78995;SDS011;68401;47.192;-1.552;2023-04-09T11:43:07;2.78;;;2.00;;
78995;SDS011;68401;47.192;-1.552;2023-04-09T11:45:32;2.40;;;1.75;;
78995;SDS011;68401;47.192;-1.552;2023-04-09T11:47:58;3.03;;;2.28;;
78995;SDS011;68401;47.192;-1.552;2023-04-09T11:50:23;3.63;;;2.13;;
78995;SDS011;68401;47.192;-1.552;2023-04-09T11:52:49;2.90;;;2.22;;
78995;SDS011;68401;47.192;-1.552;2023-04-09T11:55:25;2.60;;;1.83;;
78995;SDS011;68401;47.192;-1.552;2023-04-09T11:57:56;4.38;;;2.65;;
78995;SDS011;68401;47.192;-1.552;2023-04-09T12:00:25;3.97;;;1.88;;
78995;SDS011;68401;47.192;-1.552;2023-04-09T12:02:57;3.47;;;2.30;;
78995;SDS011;68401;47.192;-1.552;2023-04-09T12:05:25;3.28;;;2.28;;
78995;SDS011;68401;47.192;-1.552;2023-04-09T12:07:56;3.95;;;2.17;;
78995;SDS011;68401;47.192;-1.552;2023-04-09T12:10:30;2.83;;;1.85;;
78995;SDS011;68401;47.192;-1.552;2023-04-09T12:13:00;2.63;;;1.73;;
78995;SDS011;68401;47.192;-1.552;2023-04-09T12:15:36;2.92;;;2.00;;
78995;SDS011;68401;47.192;-1.552;2023-04-09T12:18:03;3.40;;;1.70;;
78995;SDS011;68401;47.192;-1.552;2023-04-09T12:20:33;4.40;;;2.40;;
78995;SDS011;68401;47.192;-1.552;2023-04-09T12:23:03;4.32;;;2.40;;
78995;SDS011;68401;47.192;-1.552;2023-04-09T12:25:33;2.83;;;2.00;;
78995;SDS011;68401;47.192;-1.552;2023-04-09T12:28:06;2.80;;;1.85;;
78995;SDS011;68401;47.192;-1.552;2023-04-09T12:30:33;3.33;;;2.17;;
78995;SDS011;68401;47.192;-1.552;2023-04-09T12:32:59;2.47;;;1.85;;
78995;SDS011;68401;47.192;-1.552;2023-04-09T12:35:25;2.92;;;2.00;;
78995;SDS011;68401;47.192;-1.552;2023-04-09T12:37:50;3.30;;;1.85;;
78995;SDS011;68401;47.192;-1.552;2023-04-09T12:40:17;2.70;;;1.75;;
78995;SDS011;68401;47.192;-1.552;2023-04-09T12:42:43;2.30;;;1.50;;
78995;SDS011;68401;47.192;-1.552;2023-04-09T12:45:12;4.18;;;1.92;;
78995;SDS011;68401;47.192;-1.552;2023-04-09T12:47:38;2.85;;;2.00;;
78995;SDS011;68401;47.192;-1.552;2023-04-09T12:50:04;2.30;;;1.70;;
78995;SDS011;68401;47.192;-1.552;2023-04-09T12:52:31;2.88;;;1.60;;
78995;SDS011;68401;47.192;-1.552;2023-04-09T12:54:56;3.20;;;1.80;;
78995;SDS011;68401;47.192;-1.552;2023-04-09T12:57:22;3.00;;;1.67;;
78995;SDS011;68401;47.192;-1.552;2023-04-09T12:59:48;2.67;;;1.70;;
78995;SDS011;68401;47.192;-1.552;2023-04-09T13:02:13;2.50;;;1.75;;
78995;SDS011;68401;47.192;-1.552;2023-04-09T13:04:38;2.88;;;1.90;;
78995;SDS011;68401;47.192;-1.552;2023-04-09T13:07:04;3.28;;;1.48;;
78995;SDS011;68401;47.192;-1.552;2023-04-09T13:09:30;2.72;;;1.45;;
78995;SDS011;68401;47.192;-1.552;2023-04-09T13:11:55;4.07;;;1.67;;
78995;SDS011;68401;47.192;-1.552;2023-04-09T13:14:20;2.47;;;1.45;;
78995;SDS011;68401;47.192;-1.552;2023-04-09T13:16:46;9.45;;;6.88;;
78995;SDS011;68401;47.192;-1.552;2023-04-09T13:19:12;15.93;;;11.00;;
78995;SDS011;68401;47.192;-1.552;2023-04-09T13:21:37;3.03;;;2.05;;
78995;SDS011;68401;47.192;-1.552;2023-04-09T13:24:03;2.65;;;1.50;;
78995;SDS011;68401;47.192;-1.552;2023-04-09T13:26:32;3.70;;;2.40;;
78995;SDS011;68401;47.192;-1.552;2023-04-09T13:28:57;2.97;;;2.30;;
78995;SDS011;68401;47.192;-1.552;2023-04-09T13:31:23;2.40;;;1.70;;
78995;SDS011;68401;47.192;-1.552;2023-04-09T13:33:49;2.53;;;1.73;;
78995;SDS011;68401;47.192;-1.552;2023-04-09T13:36:14;3.42;;;2.15;;
78995;SDS011;68401;47.192;-1.552;2023-04-09T13:38:40;3.53;;;2.10;;
78995;SDS011;68401;47.192;-1.552;2023-04-09T13:41:05;3.55;;;1.80;;
78995;SDS011;68401;47.192;-1.552;2023-04-09T13:43:31;2.40;;;1.70;;
78995;SDS011;68401;47.192;-1.552;2023-04-09T13:45:56;3.33;;;1.83;;
78995;SDS011;68401;47.192;-1.552;2023-04-09T13:48:22;4.15;;;1.80;;
78995;SDS011;68401;47.192;-1.552;2023-04-09T13:50:48;4.40;;;1.52;;
78995;SDS011;68401;47.192;-1.552;2023-04-09T13:53:14;3.35;;;1.70;;
78995;SDS011;68401;47.192;-1.552;2023-04-09T13:55:39;2.42;;;1.45;;
78995;SDS011;68401;47.192;-1.552;2023-04-09T13:58:05;3.05;;;1.67;;
78995;SDS011;68401;47.192;-1.552;2023-04-09T14:00:32;2.20;;;1.50;;
78995;SDS011;68401;47.192;-1.552;2023-04-09T14:02:58;1.83;;;1.33;;
78995;SDS011;68401;47.192;-1.552;2023-04-09T14:05:23;2.85;;;1.63;;
78995;SDS011;68401;47.192;-1.552;2023-04-09T14:07:49;2.80;;;1.40;;
78995;SDS011;68401;47.192;-1.552;2023-04-09T14:10:14;2.75;;;1.52;;
78995;SDS011;68401;47.192;-1.552;2023-04-09T14:12:40;2.35;;;1.40;;
78995;SDS011;68401;47.192;-1.552;2023-04-09T14:15:06;2.45;;;1.67;;
78995;SDS011;68401;47.192;-1.552;2023-04-09T14:17:32;2.80;;;1.85;;
78995;SDS011;68401;47.192;-1.552;2023-04-09T14:19:57;2.25;;;1.58;;
78995;SDS011;68401;47.192;-1.552;2023-04-09T14:22:23;2.40;;;1.50;;
78995;SDS011;68401;47.192;-1.552;2023-04-09T14:24:50;2.20;;;1.80;;
78995;SDS011;68401;47.192;-1.552;2023-04-09T14:27:15;2.50;;;1.70;;
78995;SDS011;68401;47.192;-1.552;2023-04-09T14:29:41;3.08;;;1.60;;
78995;SDS011;68401;47.192;-1.552;2023-04-09T14:32:07;2.70;;;1.60;;
78995;SDS011;68401;47.192;-1.552;2023-04-09T14:34:32;1.80;;;1.40;;
78995;SDS011;68401;47.192;-1.552;2023-04-09T14:36:57;1.58;;;1.15;;
78995;SDS011;68401;47.192;-1.552;2023-04-09T14:39:23;2.33;;;1.50;;
78995;SDS011;68401;47.192;-1.552;2023-04-09T14:41:48;2.65;;;1.80;;
78995;SDS011;68401;47.192;-1.552;2023-04-09T14:44:14;2.13;;;1.40;;
78995;SDS011;68401;47.192;-1.552;2023-04-09T14:46:39;1.63;;;1.25;;
78995;SDS011;68401;47.192;-1.552;2023-04-09T14:49:05;1.65;;;1.40;;
78995;SDS011;68401;47.192;-1.552;2023-04-09T14:51:30;2.40;;;2.00;;